Terminal Aerodrome Forecast
Issued by NWS Mt. Holly, NJ

Home | Current Version | Previous Version | Text Only | Print | Product List | Glossary On
Versions: 1 2 3 4 5 6 7 8 9 10 11 12 13 14 15 16 17 18 19 20 21
000
FTUS41 KPHI 281532 AAA
TAFACY
TAF AMD
KACY 281532Z 2816/2912 13010KT P6SM BKN035
     FM282300 10010KT P6SM SCT010 BKN035
      TEMPO 2900/2903 BKN010 OVC050
     FM290300 10008KT P6SM OVC005
     FM290800 12006KT 2SM -SHRA BR OVC003=

USA.gov is the U.S. government's official web portal to all federal, state and local government web resources and services.